Time;durP1;ratioP1;P1;durP2;ratioP2;P2;SDS_P1;SDS_P2;PMS_P1;PMS_P2;Temp;Humidity;BMP_temperature;BMP_pressure;BME280_temperature;BME280_humidity;BME280_pressure;Samples;Min_cycle;Max_cycle;Signal;HPM_P1;HPM_P2
2021/12/28 00:01:17;;;;;;;;;;;8.80;89.30;;;;;;5040372;28;20008;-85
2021/12/28 00:03:43;;;;;;;;;;;8.90;89.20;;;;;;5059992;28;19938;-86
2021/12/28 00:06:09;;;;;;;;;;;9.10;88.80;;;;;;5051383;28;20031;-86
2021/12/28 00:08:35;;;;;;;;;;;9.10;88.50;;;;;;5055362;28;19913;-86
2021/12/28 00:11:01;;;;;;;;;;;9.10;88.60;;;;;;5051324;28;19924;-87
2021/12/28 00:13:27;;;;;;;;;;;9.10;88.60;;;;;;5057727;28;19913;-86
2021/12/28 00:18:23;;;;;;;;;;;9.10;88.30;;;;;;5062166;28;19912;-87
2021/12/28 00:20:51;;;;;;;;;;;9.00;88.70;;;;;;5051238;28;19978;-87
2021/12/28 00:23:20;;;;;;;;;;;9.00;88.60;;;;;;5054345;28;19913;-86
2021/12/28 00:25:46;;;;;;;;;;;8.80;88.90;;;;;;5061803;28;19922;-87
2021/12/28 00:28:12;;;;;;;;;;;8.70;89.30;;;;;;5080759;28;19923;-87
2021/12/28 00:30:38;;;;;;;;;;;8.80;89.30;;;;;;5051319;28;19924;-87
2021/12/28 00:33:04;;;;;;;;;;;8.80;89.20;;;;;;5049857;28;19913;-87
2021/12/28 00:35:32;;;;;;;;;;;8.70;89.20;;;;;;5062766;28;19932;-87
2021/12/28 00:37:57;;;;;;;;;;;8.70;89.20;;;;;;5050630;28;20035;-87
2021/12/28 00:40:23;;;;;;;;;;;8.80;89.00;;;;;;5047966;28;19956;-86
2021/12/28 00:42:49;;;;;;;;;;;8.80;88.90;;;;;;5044155;28;19920;-86
2021/12/28 00:45:15;;;;;;;;;;;8.90;88.80;;;;;;5049303;28;20363;-86
2021/12/28 00:47:40;;;;;;;;;;;9.00;89.00;;;;;;5053461;28;19986;-86
2021/12/28 00:50:07;;;;;;;;;;;9.10;88.40;;;;;;5040556;28;19975;-85
2021/12/28 00:52:34;;;;;;;;;;;9.00;88.30;;;;;;5036628;28;19939;-86
2021/12/28 00:55:00;;;;;;;;;;;8.90;88.50;;;;;;5039314;28;19921;-86
2021/12/28 00:57:25;;;;;;;;;;;8.90;88.40;;;;;;5054433;28;19916;-86
2021/12/28 00:59:51;;;;;;;;;;;8.80;88.60;;;;;;5040740;28;20382;-86
2021/12/28 01:02:16;;;;;;;;;;;8.70;88.70;;;;;;5041227;28;19921;-86
2021/12/28 01:04:42;;;;;;;;;;;8.60;88.70;;;;;;5043606;28;19920;-86
2021/12/28 01:07:07;;;;;;;;;;;8.60;89.00;;;;;;5041507;28;19908;-86
2021/12/28 01:09:33;;;;;;;;;;;8.40;89.10;;;;;;5051955;28;20181;-86
2021/12/28 01:11:59;;;;;;;;;;;8.50;89.30;;;;;;5044600;22;19960;-87
2021/12/28 01:14:25;;;;;;;;;;;8.50;89.00;;;;;;5037329;28;19916;-86
2021/12/28 01:16:50;;;;;;;;;;;8.50;89.30;;;;;;5033323;28;19913;-87
2021/12/28 01:19:16;;;;;;;;;;;8.40;89.20;;;;;;5032857;28;19948;-87
2021/12/28 01:21:41;;;;;;;;;;;8.30;89.40;;;;;;5032671;28;19917;-86
2021/12/28 01:24:07;;;;;;;;;;;8.20;89.80;;;;;;5033200;28;19939;-87
2021/12/28 01:26:32;;;;;;;;;;;8.30;89.30;;;;;;5033796;28;19909;-87
2021/12/28 01:28:58;;;;;;;;;;;8.30;89.30;;;;;;5032619;28;20160;-87
2021/12/28 01:31:23;;;;;;;;;;;8.30;89.20;;;;;;5030584;28;19963;-86
2021/12/28 01:33:49;;;;;;;;;;;8.30;89.20;;;;;;5032889;28;20366;-87
2021/12/28 01:36:15;;;;;;;;;;;8.20;89.50;;;;;;5049936;28;19917;-87
2021/12/28 01:38:40;;;;;;;;;;;8.20;89.50;;;;;;5047625;28;19996;-87
2021/12/28 01:41:09;;;;;;;;;;;8.20;89.10;;;;;;5044205;28;19928;-86
2021/12/28 01:43:35;;;;;;;;;;;8.20;89.30;;;;;;5029657;28;19981;-85
2021/12/28 01:46:00;;;;;;;;;;;8.00;89.50;;;;;;5030037;28;19952;-87
2021/12/28 01:48:31;;;;;;;;;;;7.90;89.80;;;;;;5022717;28;20249;-87
2021/12/28 01:50:58;;;;;;;;;;;7.90;89.90;;;;;;5040498;28;19928;-86
2021/12/28 01:53:24;;;;;;;;;;;7.90;90.10;;;;;;5033249;28;20369;-87
2021/12/28 01:55:51;;;;;;;;;;;7.90;90.10;;;;;;5033282;28;19920;-87
2021/12/28 01:58:17;;;;;;;;;;;7.90;89.90;;;;;;5032069;28;19913;-87
2021/12/28 02:00:44;;;;;;;;;;;7.80;90.00;;;;;;5029016;28;20313;-87
2021/12/28 02:03:11;;;;;;;;;;;7.80;90.00;;;;;;5027162;28;19917;-87
2021/12/28 02:05:37;;;;;;;;;;;7.80;90.10;;;;;;5032005;28;19913;-86
2021/12/28 02:08:03;;;;;;;;;;;7.70;90.10;;;;;;5032287;28;19917;-87
2021/12/28 02:10:29;;;;;;;;;;;7.70;90.30;;;;;;5032218;28;20313;-87
2021/12/28 02:12:55;;;;;;;;;;;7.70;90.20;;;;;;5031823;28;19917;-87
2021/12/28 02:15:20;;;;;;;;;;;7.80;90.20;;;;;;5032000;28;19952;-87
2021/12/28 02:17:46;;;;;;;;;;;7.70;90.10;;;;;;5031962;28;20148;-87
2021/12/28 02:20:13;;;;;;;;;;;7.90;89.90;;;;;;5041112;28;19917;-87
2021/12/28 02:22:39;;;;;;;;;;;7.90;89.80;;;;;;5032736;28;19965;-88
2021/12/28 02:25:05;;;;;;;;;;;7.90;89.60;;;;;;5032838;28;20018;-87
2021/12/28 02:27:30;;;;;;;;;;;7.90;89.70;;;;;;5035018;28;19998;-87
2021/12/28 02:29:56;;;;;;;;;;;7.90;89.60;;;;;;5029248;28;19951;-87
2021/12/28 02:32:27;;;;;;;;;;;7.90;89.60;;;;;;5030600;28;20004;-87
2021/12/28 02:34:52;;;;;;;;;;;8.00;89.30;;;;;;5031779;28;20260;-87
2021/12/28 02:37:18;;;;;;;;;;;8.10;89.30;;;;;;5031721;28;20000;-86
2021/12/28 02:39:44;;;;;;;;;;;8.00;89.30;;;;;;5027374;28;19913;-86
2021/12/28 02:42:10;;;;;;;;;;;8.10;89.20;;;;;;5029444;28;19916;-86
2021/12/28 02:44:35;;;;;;;;;;;8.00;89.30;;;;;;5027855;28;19921;-86
2021/12/28 02:47:01;;;;;;;;;;;8.10;89.40;;;;;;5030661;28;19913;-86
2021/12/28 02:49:26;;;;;;;;;;;8.10;89.30;;;;;;5028623;28;19963;-86
2021/12/28 02:51:51;;;;;;;;;;;8.10;89.30;;;;;;5030487;28;20020;-87
2021/12/28 02:54:17;;;;;;;;;;;8.10;89.20;;;;;;5030697;28;19913;-85
2021/12/28 02:56:42;;;;;;;;;;;8.10;89.20;;;;;;5030776;28;20320;-86
2021/12/28 02:59:08;;;;;;;;;;;8.00;89.20;;;;;;5029574;28;19920;-85
2021/12/28 03:01:34;;;;;;;;;;;8.10;89.20;;;;;;5029642;28;19913;-87
2021/12/28 03:04:07;;;;;;;;;;;8.10;89.30;;;;;;5032913;28;20349;-86
2021/12/28 03:06:34;;;;;;;;;;;8.10;89.00;;;;;;5025498;28;19980;-86
2021/12/28 03:09:00;;;;;;;;;;;8.10;88.80;;;;;;5053887;28;19928;-86
2021/12/28 03:11:27;;;;;;;;;;;8.00;89.00;;;;;;5054333;28;19913;-86
2021/12/28 03:13:53;;;;;;;;;;;8.10;89.10;;;;;;5050460;28;19962;-87
2021/12/28 03:16:19;;;;;;;;;;;8.10;88.90;;;;;;5037325;28;19936;-87
2021/12/28 03:18:45;;;;;;;;;;;8.10;89.20;;;;;;5036121;28;20344;-86
2021/12/28 03:21:12;;;;;;;;;;;8.20;88.90;;;;;;5035580;28;20385;-87
2021/12/28 03:23:38;;;;;;;;;;;8.30;88.70;;;;;;5037452;28;19913;-86
2021/12/28 03:26:04;;;;;;;;;;;8.30;88.60;;;;;;5033151;28;19923;-86
2021/12/28 03:28:30;;;;;;;;;;;8.30;88.60;;;;;;5040060;28;19913;-86
2021/12/28 03:30:57;;;;;;;;;;;8.40;88.50;;;;;;5038224;28;19927;-85
2021/12/28 03:33:24;;;;;;;;;;;8.30;88.30;;;;;;5038608;28;19917;-84
2021/12/28 03:35:49;;;;;;;;;;;8.30;88.50;;;;;;5034723;28;19913;-85
2021/12/28 03:38:15;;;;;;;;;;;8.30;88.50;;;;;;5039235;28;19952;-86
2021/12/28 03:40:41;;;;;;;;;;;8.20;88.40;;;;;;5054556;28;20290;-86
2021/12/28 03:43:07;;;;;;;;;;;8.20;88.60;;;;;;5037731;28;19917;-87
2021/12/28 03:45:32;;;;;;;;;;;8.30;88.60;;;;;;5035824;28;20296;-86
2021/12/28 03:47:58;;;;;;;;;;;8.20;88.70;;;;;;5036729;28;19913;-86
2021/12/28 03:50:25;;;;;;;;;;;8.20;88.70;;;;;;5034918;28;19921;-87
2021/12/28 03:52:55;;;;;;;;;;;8.30;88.60;;;;;;5038329;28;19945;-87
2021/12/28 03:55:21;;;;;;;;;;;8.30;88.70;;;;;;5038086;28;19913;-87
2021/12/28 03:57:47;;;;;;;;;;;8.50;88.20;;;;;;5038273;28;19910;-87
2021/12/28 04:00:14;;;;;;;;;;;8.50;87.90;;;;;;5047096;28;19916;-86
2021/12/28 04:02:40;;;;;;;;;;;8.60;87.80;;;;;;5053529;28;19901;-84
2021/12/28 04:05:06;;;;;;;;;;;8.60;87.80;;;;;;5052574;28;19921;-85
2021/12/28 04:07:31;;;;;;;;;;;8.80;87.40;;;;;;5042040;28;19913;-86
2021/12/28 04:10:01;;;;;;;;;;;8.80;87.10;;;;;;5036513;28;19921;-86
2021/12/28 04:12:27;;;;;;;;;;;8.80;87.40;;;;;;5037401;28;19943;-85
2021/12/28 04:14:53;;;;;;;;;;;8.90;86.80;;;;;;5038148;28;19956;-85
2021/12/28 04:17:18;;;;;;;;;;;8.90;87.10;;;;;;5048054;28;19913;-85
2021/12/28 04:19:44;;;;;;;;;;;8.70;87.50;;;;;;5047627;28;19913;-85
2021/12/28 04:22:09;;;;;;;;;;;9.00;87.30;;;;;;5060747;28;19935;-86
2021/12/28 04:24:35;;;;;;;;;;;8.90;87.10;;;;;;5047562;28;19913;-84
2021/12/28 04:27:00;;;;;;;;;;;8.90;87.10;;;;;;5043487;28;19979;-86
2021/12/28 04:29:26;;;;;;;;;;;9.00;87.00;;;;;;5040251;28;19953;-85
2021/12/28 04:31:51;;;;;;;;;;;9.00;87.40;;;;;;5036242;28;19981;-86
2021/12/28 04:34:17;;;;;;;;;;;8.90;87.40;;;;;;5041504;28;19917;-86
2021/12/28 04:36:42;;;;;;;;;;;9.10;87.30;;;;;;5042540;28;19917;-84
2021/12/28 04:39:08;;;;;;;;;;;9.10;87.00;;;;;;5043474;28;19924;-85
2021/12/28 04:41:34;;;;;;;;;;;9.00;87.00;;;;;;5041474;28;20470;-84
2021/12/28 04:44:01;;;;;;;;;;;9.00;87.20;;;;;;5041172;28;19952;-86
2021/12/28 04:46:29;;;;;;;;;;;8.90;87.40;;;;;;5037342;28;19936;-86
2021/12/28 04:48:55;;;;;;;;;;;8.90;87.30;;;;;;5035368;28;20020;-85
2021/12/28 04:51:22;;;;;;;;;;;8.80;87.70;;;;;;5055801;22;19964;-85
2021/12/28 04:53:48;;;;;;;;;;;9.10;87.50;;;;;;5047628;28;20302;-84
2021/12/28 04:56:14;;;;;;;;;;;9.10;87.00;;;;;;5047579;28;19932;-85
2021/12/28 04:58:40;;;;;;;;;;;9.10;87.20;;;;;;5048610;28;19931;-85
2021/12/28 05:01:05;;;;;;;;;;;9.00;87.50;;;;;;5051785;28;20760;-85
2021/12/28 05:03:31;;;;;;;;;;;9.10;87.20;;;;;;5050779;28;20357;-85
2021/12/28 05:05:56;;;;;;;;;;;9.20;87.00;;;;;;5048783;28;19956;-85
2021/12/28 05:08:22;;;;;;;;;;;9.20;86.70;;;;;;5043533;28;19917;-85
2021/12/28 05:10:48;;;;;;;;;;;9.20;86.90;;;;;;5046375;28;19917;-86
2021/12/28 05:13:13;;;;;;;;;;;9.20;86.80;;;;;;5049883;28;19957;-84
2021/12/28 05:15:42;;;;;;;;;;;9.30;86.80;;;;;;5054550;28;19920;-84
2021/12/28 05:18:08;;;;;;;;;;;9.20;86.70;;;;;;5069984;28;20009;-84
2021/12/28 05:20:34;;;;;;;;;;;9.10;87.20;;;;;;5054758;28;19913;-85
2021/12/28 05:22:59;;;;;;;;;;;9.10;87.30;;;;;;5048966;28;20384;-85
2021/12/28 05:25:25;;;;;;;;;;;9.10;87.10;;;;;;5066579;28;19992;-84
2021/12/28 05:27:50;;;;;;;;;;;9.10;87.00;;;;;;5055587;28;19913;-85
2021/12/28 05:30:16;;;;;;;;;;;9.00;87.20;;;;;;5049946;28;19917;-85
2021/12/28 05:32:41;;;;;;;;;;;8.90;87.50;;;;;;5065714;28;19913;-85
2021/12/28 05:35:08;;;;;;;;;;;8.80;87.80;;;;;;5077612;28;19920;-85
2021/12/28 05:37:33;;;;;;;;;;;8.90;87.70;;;;;;5070718;28;19984;-85
2021/12/28 05:39:59;;;;;;;;;;;8.90;87.80;;;;;;5057270;28;19920;-84
2021/12/28 05:42:25;;;;;;;;;;;9.00;87.70;;;;;;5057440;28;19972;-85
2021/12/28 05:44:50;;;;;;;;;;;8.80;87.80;;;;;;5061777;28;19920;-84
2021/12/28 05:47:16;;;;;;;;;;;8.70;88.00;;;;;;5057252;28;20069;-85
2021/12/28 05:49:42;;;;;;;;;;;8.70;88.10;;;;;;5055365;28;19971;-84
2021/12/28 05:52:07;;;;;;;;;;;8.60;88.30;;;;;;5061832;28;19956;-84
2021/12/28 05:54:33;;;;;;;;;;;8.80;88.30;;;;;;5061843;28;20296;-85
2021/12/28 05:56:58;;;;;;;;;;;8.80;88.10;;;;;;5051383;28;19920;-85
2021/12/28 05:59:24;;;;;;;;;;;8.80;88.00;;;;;;5043334;28;19921;-84
2021/12/28 06:01:49;;;;;;;;;;;8.90;88.10;;;;;;5046911;28;19941;-85
2021/12/28 06:04:15;;;;;;;;;;;8.90;87.90;;;;;;5066525;28;19936;-86
2021/12/28 06:06:40;;;;;;;;;;;8.90;87.90;;;;;;5050288;28;19924;-85
2021/12/28 06:09:06;;;;;;;;;;;8.80;88.10;;;;;;5055196;28;20012;-86
2021/12/28 06:11:31;;;;;;;;;;;8.80;88.10;;;;;;5050653;28;19917;-85
2021/12/28 06:13:57;;;;;;;;;;;8.90;87.90;;;;;;5047312;28;19944;-80
2021/12/28 06:16:22;;;;;;;;;;;8.90;88.00;;;;;;5043072;28;19921;-83
2021/12/28 06:18:51;;;;;;;;;;;8.80;88.20;;;;;;5044229;28;19921;-83
2021/12/28 06:21:17;;;;;;;;;;;9.00;88.20;;;;;;5046502;28;20299;-81
2021/12/28 06:23:42;;;;;;;;;;;8.90;88.10;;;;;;5055883;28;20431;-80
2021/12/28 06:26:08;;;;;;;;;;;8.80;88.30;;;;;;5048350;28;19947;-78
2021/12/28 06:28:34;;;;;;;;;;;8.90;88.00;;;;;;5049363;28;19996;-79
2021/12/28 06:30:59;;;;;;;;;;;8.90;87.90;;;;;;5047769;28;20389;-80
2021/12/28 06:33:25;;;;;;;;;;;8.80;88.30;;;;;;5054321;28;19940;-79
2021/12/28 06:35:51;;;;;;;;;;;8.80;88.10;;;;;;5063098;28;19976;-79
2021/12/28 06:38:17;;;;;;;;;;;9.00;87.90;;;;;;5057523;28;19980;-80
2021/12/28 06:40:43;;;;;;;;;;;9.00;88.10;;;;;;5050106;28;19980;-81
2021/12/28 06:43:08;;;;;;;;;;;9.10;87.80;;;;;;5061036;28;19914;-82
2021/12/28 06:45:34;;;;;;;;;;;9.00;88.00;;;;;;5048974;28;19907;-81
2021/12/28 06:48:00;;;;;;;;;;;9.10;87.50;;;;;;5054936;28;19933;-83
2021/12/28 06:50:25;;;;;;;;;;;9.10;87.50;;;;;;5045850;28;19925;-83
2021/12/28 06:52:51;;;;;;;;;;;9.30;87.10;;;;;;5039262;28;19917;-82
2021/12/28 06:55:16;;;;;;;;;;;9.10;87.20;;;;;;5039849;28;19987;-83
2021/12/28 06:57:42;;;;;;;;;;;9.20;87.10;;;;;;5047363;28;19962;-83
2021/12/28 07:00:09;;;;;;;;;;;9.30;87.20;;;;;;5056315;28;19951;-82
2021/12/28 07:02:35;;;;;;;;;;;9.20;87.10;;;;;;5053951;28;19932;-82
2021/12/28 07:05:00;;;;;;;;;;;9.10;87.10;;;;;;5049231;28;19941;-84
2021/12/28 07:07:26;;;;;;;;;;;9.00;87.30;;;;;;5051525;28;19917;-84
2021/12/28 07:09:51;;;;;;;;;;;9.10;87.10;;;;;;5045128;28;19924;-83
2021/12/28 07:12:17;;;;;;;;;;;9.10;87.30;;;;;;5050617;28;19989;-84
2021/12/28 07:14:42;;;;;;;;;;;9.10;87.20;;;;;;5051978;28;19944;-83
2021/12/28 07:17:08;;;;;;;;;;;9.10;87.00;;;;;;5043564;28;19913;-83
2021/12/28 07:19:36;;;;;;;;;;;9.00;87.30;;;;;;5052628;28;19913;-83
2021/12/28 07:22:36;;;;;;;;;;;8.90;87.60;;;;;;5046857;28;19924;-83
2021/12/28 07:28:29;;;;;;;;;;;9.00;87.70;;;;;;5005589;28;19919;-81
2021/12/28 07:31:03;;;;;;;;;;;8.90;87.50;;;;;;5033755;28;19944;-83
2021/12/28 07:33:34;;;;;;;;;;;9.00;87.50;;;;;;5043288;28;20023;-81
2021/12/28 07:35:59;;;;;;;;;;;9.10;87.40;;;;;;5052285;28;20277;-82
2021/12/28 07:38:34;;;;;;;;;;;9.00;87.30;;;;;;5053969;28;20038;-82
2021/12/28 07:41:09;;;;;;;;;;;9.00;87.30;;;;;;5038142;28;20007;-82
2021/12/28 07:43:35;;;;;;;;;;;9.00;87.50;;;;;;5052385;28;20004;-82
2021/12/28 07:46:00;;;;;;;;;;;9.00;87.60;;;;;;5048274;28;19913;-80
2021/12/28 07:48:26;;;;;;;;;;;8.90;87.50;;;;;;5046651;28;19964;-81
2021/12/28 07:50:51;;;;;;;;;;;9.00;87.80;;;;;;5046649;28;19955;-82
2021/12/28 07:53:19;;;;;;;;;;;8.90;87.60;;;;;;5052601;28;19939;-80
2021/12/28 07:55:45;;;;;;;;;;;8.80;87.60;;;;;;5041582;28;19935;-82
2021/12/28 07:58:11;;;;;;;;;;;8.90;87.70;;;;;;5051546;28;19913;-82
2021/12/28 08:00:36;;;;;;;;;;;8.80;87.60;;;;;;5034727;28;20401;-82
2021/12/28 08:03:04;;;;;;;;;;;8.80;87.80;;;;;;5046271;28;19932;-82
2021/12/28 08:05:30;;;;;;;;;;;8.80;87.90;;;;;;5044024;28;19913;-81
2021/12/28 08:07:55;;;;;;;;;;;8.80;87.80;;;;;;5035750;28;19913;-82
2021/12/28 08:10:22;;;;;;;;;;;8.80;88.10;;;;;;5043637;28;19939;-82
2021/12/28 08:12:49;;;;;;;;;;;9.00;87.80;;;;;;5044966;28;19913;-81
2021/12/28 08:15:15;;;;;;;;;;;9.00;87.40;;;;;;5048754;28;20320;-81
2021/12/28 08:17:40;;;;;;;;;;;8.90;87.50;;;;;;5047000;28;19913;-83
2021/12/28 08:20:07;;;;;;;;;;;8.80;87.70;;;;;;5043046;28;19920;-82
2021/12/28 08:22:33;;;;;;;;;;;9.00;87.60;;;;;;5043288;28;20400;-82
2021/12/28 08:24:59;;;;;;;;;;;9.10;87.50;;;;;;5035465;28;19913;-80
2021/12/28 08:27:25;;;;;;;;;;;9.10;87.00;;;;;;5035928;28;19913;-80
2021/12/28 08:29:51;;;;;;;;;;;8.90;87.50;;;;;;5036693;28;20333;-80
2021/12/28 08:32:17;;;;;;;;;;;9.00;87.70;;;;;;5048365;28;19924;-80
2021/12/28 08:34:42;;;;;;;;;;;9.00;87.60;;;;;;5050072;28;20336;-80
2021/12/28 08:37:08;;;;;;;;;;;9.00;87.60;;;;;;5040107;28;19912;-82
2021/12/28 08:39:34;;;;;;;;;;;9.10;87.80;;;;;;5046281;28;19921;-84
2021/12/28 08:42:00;;;;;;;;;;;9.20;87.20;;;;;;5043133;28;20300;-85
2021/12/28 08:44:28;;;;;;;;;;;9.20;87.50;;;;;;5037795;28;19912;-80
2021/12/28 08:46:54;;;;;;;;;;;9.40;87.70;;;;;;5046933;28;20066;-81
2021/12/28 08:49:20;;;;;;;;;;;9.50;87.10;;;;;;5050155;28;20533;-82
2021/12/28 08:51:45;;;;;;;;;;;9.50;87.00;;;;;;5047357;28;20016;-83
2021/12/28 08:54:11;;;;;;;;;;;9.60;86.90;;;;;;5048891;28;19913;-84
2021/12/28 08:56:36;;;;;;;;;;;9.80;86.60;;;;;;5051520;28;19995;-85
2021/12/28 08:59:02;;;;;;;;;;;9.70;86.60;;;;;;5040068;28;19921;-82
2021/12/28 09:01:28;;;;;;;;;;;9.80;86.30;;;;;;5057487;28;19962;-83
2021/12/28 09:03:54;;;;;;;;;;;9.80;86.20;;;;;;5045404;28;20024;-82
2021/12/28 09:06:22;;;;;;;;;;;9.90;86.30;;;;;;5052123;28;19993;-83
2021/12/28 09:08:56;;;;;;;;;;;9.80;86.00;;;;;;5039284;28;19913;-82
2021/12/28 09:11:21;;;;;;;;;;;9.90;86.40;;;;;;5044204;28;19947;-79
2021/12/28 09:13:47;;;;;;;;;;;10.00;86.20;;;;;;5053503;28;19913;-81
2021/12/28 09:16:12;;;;;;;;;;;10.00;85.70;;;;;;5050486;28;19939;-81
2021/12/28 09:18:39;;;;;;;;;;;10.00;85.60;;;;;;5043417;28;20007;-82
2021/12/28 09:21:04;;;;;;;;;;;10.00;86.00;;;;;;5051596;28;20369;-81
2021/12/28 09:23:30;;;;;;;;;;;10.00;86.10;;;;;;5045066;28;19970;-81
2021/12/28 09:25:55;;;;;;;;;;;10.00;85.90;;;;;;5043775;28;20009;-82
2021/12/28 09:28:21;;;;;;;;;;;9.90;86.00;;;;;;5034659;28;20369;-80
2021/12/28 09:30:47;;;;;;;;;;;10.00;85.80;;;;;;5051837;28;20011;-82
2021/12/28 09:33:12;;;;;;;;;;;10.00;85.90;;;;;;5047443;28;19948;-80
2021/12/28 09:35:38;;;;;;;;;;;9.90;85.90;;;;;;5051332;28;19909;-82
2021/12/28 09:38:04;;;;;;;;;;;10.00;85.90;;;;;;5055649;28;20132;-81
2021/12/28 09:40:30;;;;;;;;;;;10.10;86.10;;;;;;5045102;28;20309;-82
2021/12/28 09:42:56;;;;;;;;;;;10.10;86.00;;;;;;5045261;28;20373;-81
2021/12/28 09:45:22;;;;;;;;;;;10.10;86.10;;;;;;5049265;28;19921;-81
2021/12/28 09:47:48;;;;;;;;;;;10.20;85.70;;;;;;5054927;28;19956;-81
2021/12/28 09:50:15;;;;;;;;;;;10.40;85.30;;;;;;5041735;28;20012;-81
2021/12/28 09:52:42;;;;;;;;;;;10.40;84.80;;;;;;5045006;28;19924;-80
2021/12/28 09:55:09;;;;;;;;;;;10.20;85.20;;;;;;5042277;28;19913;-81
2021/12/28 09:57:35;;;;;;;;;;;10.40;85.30;;;;;;5042186;28;19976;-82
2021/12/28 10:00:00;;;;;;;;;;;10.50;84.90;;;;;;5036393;28;19955;-82
2021/12/28 10:02:26;;;;;;;;;;;10.50;84.80;;;;;;5039614;28;19979;-80
2021/12/28 10:04:53;;;;;;;;;;;10.60;84.20;;;;;;5053054;28;19920;-81
2021/12/28 10:07:20;;;;;;;;;;;10.70;84.10;;;;;;5052253;28;19959;-82
2021/12/28 10:09:46;;;;;;;;;;;10.60;83.80;;;;;;5051892;28;19913;-82
2021/12/28 10:12:12;;;;;;;;;;;10.60;84.30;;;;;;5054153;28;19939;-79
2021/12/28 10:14:39;;;;;;;;;;;10.70;84.00;;;;;;5056633;28;22449;-83
2021/12/28 10:17:05;;;;;;;;;;;10.60;84.00;;;;;;5051555;28;19936;-83
2021/12/28 10:19:41;;;;;;;;;;;10.60;84.10;;;;;;5048599;28;20001;-83
2021/12/28 10:22:26;;;;;;;;;;;10.50;84.50;;;;;;5054846;28;19935;-82
2021/12/28 10:24:53;;;;;;;;;;;10.50;84.50;;;;;;5056415;28;19952;-83
2021/12/28 10:27:20;;;;;;;;;;;10.50;84.20;;;;;;5058259;28;19962;-84
2021/12/28 10:29:45;;;;;;;;;;;10.50;84.50;;;;;;5049803;28;19953;-85
2021/12/28 10:32:20;;;;;;;;;;;10.70;84.20;;;;;;5056870;28;20293;-82
2021/12/28 10:34:46;;;;;;;;;;;10.80;83.60;;;;;;5041386;28;19913;-81
2021/12/28 10:37:16;;;;;;;;;;;10.80;83.70;;;;;;5038100;28;19929;-81
2021/12/28 10:39:45;;;;;;;;;;;10.90;83.60;;;;;;5038297;28;19970;-82
2021/12/28 10:42:31;;;;;;;;;;;10.80;83.80;;;;;;5052449;28;19936;-80
2021/12/28 10:44:57;;;;;;;;;;;10.70;84.20;;;;;;5046789;28;20391;-79
2021/12/28 10:47:23;;;;;;;;;;;10.60;84.30;;;;;;5047515;28;19928;-82
2021/12/28 10:49:49;;;;;;;;;;;10.70;84.70;;;;;;5040721;28;20007;-80
2021/12/28 10:52:22;;;;;;;;;;;10.60;85.30;;;;;;5044985;28;19960;-79
2021/12/28 10:54:47;;;;;;;;;;;10.50;86.00;;;;;;5074275;22;19971;-87
2021/12/28 10:57:13;;;;;;;;;;;10.40;86.70;;;;;;5065034;28;19913;-85
2021/12/28 10:59:38;;;;;;;;;;;10.30;87.20;;;;;;5059123;28;20027;-89
2021/12/28 11:02:04;;;;;;;;;;;10.40;87.30;;;;;;5036407;28;19924;-83
2021/12/28 11:04:31;;;;;;;;;;;10.50;87.00;;;;;;5038394;28;19921;-86
2021/12/28 11:06:57;;;;;;;;;;;10.60;86.80;;;;;;5017964;28;19916;-88
2021/12/28 11:09:24;;;;;;;;;;;10.60;86.60;;;;;;5029108;28;19915;-88
2021/12/28 11:11:52;;;;;;;;;;;10.60;86.80;;;;;;5038564;28;19921;-87
2021/12/28 11:14:18;;;;;;;;;;;10.80;86.40;;;;;;5016441;28;19921;-88
2021/12/28 11:16:52;;;;;;;;;;;10.70;86.30;;;;;;5036953;28;19916;-88
2021/12/28 11:19:25;;;;;;;;;;;10.70;86.30;;;;;;5023044;28;19909;-87
2021/12/28 11:21:52;;;;;;;;;;;10.70;86.90;;;;;;5036551;28;19913;-86
2021/12/28 11:24:17;;;;;;;;;;;10.70;86.90;;;;;;5002064;28;19936;-88
2021/12/28 11:26:45;;;;;;;;;;;10.70;86.80;;;;;;5033467;28;20320;-87
2021/12/28 11:29:18;;;;;;;;;;;10.60;86.90;;;;;;5033404;28;20011;-88
2021/12/28 11:31:50;;;;;;;;;;;10.60;86.80;;;;;;4996697;28;20365;-88
2021/12/28 11:34:21;;;;;;;;;;;10.60;86.90;;;;;;5008251;28;19975;-87
2021/12/28 11:36:58;;;;;;;;;;;10.80;86.80;;;;;;4996431;28;19921;-88
2021/12/28 11:39:29;;;;;;;;;;;10.70;86.80;;;;;;4996278;28;19913;-88
2021/12/28 11:41:55;;;;;;;;;;;10.80;86.40;;;;;;5015401;28;20323;-88
2021/12/28 11:44:22;;;;;;;;;;;10.70;86.70;;;;;;5024615;28;19928;-88
2021/12/28 11:46:48;;;;;;;;;;;10.60;87.00;;;;;;5070957;28;20134;-87
2021/12/28 11:49:15;;;;;;;;;;;10.60;87.30;;;;;;5028420;28;20047;-88
2021/12/28 11:51:45;;;;;;;;;;;10.60;87.40;;;;;;5027608;28;19913;-87
2021/12/28 11:54:12;;;;;;;;;;;10.60;87.60;;;;;;5019783;28;19979;-88
2021/12/28 11:56:40;;;;;;;;;;;10.60;88.30;;;;;;5010363;28;19964;-87
2021/12/28 11:59:06;;;;;;;;;;;10.70;88.20;;;;;;5026855;28;19915;-88
2021/12/28 12:01:35;;;;;;;;;;;10.60;88.30;;;;;;5016459;28;19976;-87
2021/12/28 12:04:01;;;;;;;;;;;10.70;88.10;;;;;;5033543;28;19971;-87
2021/12/28 12:06:45;;;;;;;;;;;10.70;88.10;;;;;;5015711;28;19914;-87
2021/12/28 12:09:10;;;;;;;;;;;10.50;88.20;;;;;;5032735;28;19920;-86
2021/12/28 12:11:56;;;;;;;;;;;10.50;88.50;;;;;;4997732;28;19964;-85
2021/12/28 12:14:21;;;;;;;;;;;10.50;88.80;;;;;;5012637;28;19910;-87
2021/12/28 12:16:47;;;;;;;;;;;10.60;88.10;;;;;;5037012;28;20299;-87
2021/12/28 12:19:32;;;;;;;;;;;10.70;88.10;;;;;;5001974;28;19935;-87
2021/12/28 12:22:16;;;;;;;;;;;10.70;87.60;;;;;;4997983;28;19913;-87
2021/12/28 12:24:51;;;;;;;;;;;10.70;87.80;;;;;;5016335;28;19963;-87
2021/12/28 12:27:35;;;;;;;;;;;10.70;87.90;;;;;;5007025;28;19917;-87
2021/12/28 12:30:00;;;;;;;;;;;10.70;87.90;;;;;;5038779;28;19989;-88
2021/12/28 12:32:45;;;;;;;;;;;10.70;87.40;;;;;;5036083;28;19913;-87
2021/12/28 12:35:30;;;;;;;;;;;10.60;87.60;;;;;;5021654;28;20062;-87
2021/12/28 12:37:55;;;;;;;;;;;10.60;88.00;;;;;;5019823;28;19909;-88
2021/12/28 12:40:21;;;;;;;;;;;10.50;88.30;;;;;;5032596;28;19914;-87
2021/12/28 12:43:05;;;;;;;;;;;10.40;88.90;;;;;;5020621;28;19928;-87
2021/12/28 12:45:50;;;;;;;;;;;10.40;89.80;;;;;;5019686;28;19932;-88
2021/12/28 12:48:35;;;;;;;;;;;10.50;89.30;;;;;;5019080;28;19920;-86
2021/12/28 12:51:22;;;;;;;;;;;10.40;89.70;;;;;;5018250;28;20010;-87
2021/12/28 12:53:56;;;;;;;;;;;10.20;89.80;;;;;;5018386;28;19913;-87
2021/12/28 12:56:22;;;;;;;;;;;10.40;90.10;;;;;;5019522;28;19920;-89
2021/12/28 12:58:49;;;;;;;;;;;10.30;89.90;;;;;;5019273;28;19952;-87
2021/12/28 13:01:24;;;;;;;;;;;10.30;90.00;;;;;;5027293;28;19909;-86
2021/12/28 13:03:50;;;;;;;;;;;10.30;90.10;;;;;;5019013;28;20011;-87
2021/12/28 13:06:35;;;;;;;;;;;10.30;90.20;;;;;;5013450;28;19945;-86
2021/12/28 13:09:00;;;;;;;;;;;10.20;90.60;;;;;;5018850;28;19936;-87
2021/12/28 13:11:30;;;;;;;;;;;10.10;90.40;;;;;;5033715;28;19913;-86
2021/12/28 13:13:55;;;;;;;;;;;10.00;90.60;;;;;;5010945;28;19914;-87
2021/12/28 13:16:21;;;;;;;;;;;10.10;90.30;;;;;;5035308;28;19920;-87
2021/12/28 13:18:47;;;;;;;;;;;10.10;90.30;;;;;;5040034;28;19917;-86
2021/12/28 13:21:17;;;;;;;;;;;10.10;89.90;;;;;;5016269;28;19910;-86
2021/12/28 13:24:02;;;;;;;;;;;10.10;89.70;;;;;;5009981;28;19992;-87
2021/12/28 13:26:28;;;;;;;;;;;10.10;89.20;;;;;;5033921;28;19972;-87
2021/12/28 13:29:00;;;;;;;;;;;10.10;88.80;;;;;;5020980;28;20057;-87
2021/12/28 13:31:33;;;;;;;;;;;10.00;88.70;;;;;;5040557;28;19920;-86
2021/12/28 13:34:00;;;;;;;;;;;10.10;88.20;;;;;;5070225;28;19911;-87
2021/12/28 13:36:27;;;;;;;;;;;10.10;88.20;;;;;;5040997;28;19922;-87
2021/12/28 13:39:08;;;;;;;;;;;10.10;87.50;;;;;;5019731;28;19913;-87
2021/12/28 13:41:34;;;;;;;;;;;10.10;87.50;;;;;;5020168;28;19917;-87
2021/12/28 13:44:04;;;;;;;;;;;10.10;87.70;;;;;;5014215;28;19913;-87
2021/12/28 13:46:30;;;;;;;;;;;10.10;87.10;;;;;;5033429;28;20283;-87
2021/12/28 13:48:57;;;;;;;;;;;10.00;87.10;;;;;;5019962;28;19928;-86
2021/12/28 13:51:23;;;;;;;;;;;10.10;86.90;;;;;;5016215;28;20272;-86
2021/12/28 13:53:50;;;;;;;;;;;10.00;86.60;;;;;;5024058;28;19913;-86
2021/12/28 13:56:20;;;;;;;;;;;10.10;86.50;;;;;;5033066;28;19917;-87
2021/12/28 13:58:47;;;;;;;;;;;10.00;86.40;;;;;;5015804;28;19917;-86
2021/12/28 14:01:14;;;;;;;;;;;10.10;86.20;;;;;;5034990;28;19913;-87
2021/12/28 14:03:40;;;;;;;;;;;10.00;86.30;;;;;;5021018;28;19937;-86
2021/12/28 14:06:06;;;;;;;;;;;10.00;85.90;;;;;;5030861;28;19959;-87
2021/12/28 14:08:33;;;;;;;;;;;10.00;85.90;;;;;;5032711;28;19919;-85
2021/12/28 14:10:59;;;;;;;;;;;10.00;85.70;;;;;;5016136;28;19913;-87
2021/12/28 14:13:26;;;;;;;;;;;10.10;85.60;;;;;;5017277;28;19947;-86
2021/12/28 14:15:51;;;;;;;;;;;10.10;85.80;;;;;;5013373;28;19913;-86
2021/12/28 14:18:23;;;;;;;;;;;10.30;85.50;;;;;;5029265;28;20371;-86
2021/12/28 14:20:48;;;;;;;;;;;10.50;84.70;;;;;;5049317;28;19967;-87
2021/12/28 14:23:14;;;;;;;;;;;10.60;83.90;;;;;;5016571;28;19913;-88
2021/12/28 14:25:39;;;;;;;;;;;10.50;83.80;;;;;;5033642;28;19917;-90
2021/12/28 14:28:06;;;;;;;;;;;10.60;83.50;;;;;;5023872;28;19980;-89
2021/12/28 14:30:32;;;;;;;;;;;10.50;83.80;;;;;;5017031;28;19916;-89
2021/12/28 14:32:57;;;;;;;;;;;10.60;83.40;;;;;;5040952;28;20000;-89